Terminal Aerodrome Forecast
Issued by NWS Sterling, VA

Current Version | Previous Version | Graphics & Text | Print | Product List | Glossary On
Versions: 1 2 3 4 5 6 7 8 9 10 11 12 13 14 15 16 17 18 19 20 21 22 23 24 25 26 27 28 29
751
FTUS41 KLWX 220853 AAA
TAFDCA
TAF AMD
KDCA 220853Z 2209/2306 VRB03KT 4SM -SHRA OVC008
      TEMPO 2210/2214 BKN003
     FM221400 VRB03KT 2SM -SHRA OVC003
     FM221800 17004KT P6SM -SHRA VCTS BKN020CB
     FM222100 17005KT P6SM BKN025
     FM222300 17005KT P6SM BKN040
     FM230200 26004KT P6SM BKN045
     FM230500 33004KT P6SM BKN070=

USA.gov is the U.S. government's official web portal to all federal, state and local government web resources and services.